Time;durP1;ratioP1;P1;durP2;ratioP2;P2;SDS_P1;SDS_P2;PMS_P1;PMS_P2;Temp;Humidity;BMP_temperature;BMP_pressure;BME280_temperature;BME280_humidity;BME280_pressure;Samples;Min_cycle;Max_cycle;Signal;HPM_P1;HPM_P2
2023/11/22 00:00:48;;;;;;;0.70;0.70;;;;;;;20.95;28.08;101530.91;4548661;28;20036;-67
2023/11/22 00:02:58;;;;;;;0.63;0.63;;;;;;;20.91;28.39;101537.72;4549044;28;20044;-67
2023/11/22 00:05:10;;;;;;;0.70;0.70;;;;;;;20.91;28.36;101526.22;4548634;28;20123;-67
2023/11/22 00:07:21;;;;;;;0.70;0.70;;;;;;;20.89;28.40;101529.44;4549843;28;20568;-67
2023/11/22 00:09:32;;;;;;;0.68;0.60;;;;;;;20.94;28.00;101537.84;4547467;28;20037;-67
2023/11/22 00:11:43;;;;;;;0.70;0.70;;;;;;;20.91;28.24;101532.81;4517484;28;20038;-67
2023/11/22 00:13:55;;;;;;;0.88;0.88;;;;;;;20.92;27.84;101539.38;4544678;28;20115;-67
2023/11/22 00:16:08;;;;;;;0.68;0.68;;;;;;;20.92;27.91;101550.84;4544406;28;20040;-67
2023/11/22 00:18:19;;;;;;;1.25;0.70;;;;;;;20.92;27.61;101550.84;4545128;28;20049;-67
2023/11/22 00:20:30;;;;;;;0.75;0.68;;;;;;;20.86;27.73;101553.09;4545765;28;20379;-67
2023/11/22 00:22:40;;;;;;;0.60;0.60;;;;;;;20.93;28.07;101562.00;4545195;28;20037;-67
2023/11/22 00:24:51;;;;;;;1.10;0.73;;;;;;;20.93;27.83;101575.50;4544317;28;20344;-67
2023/11/22 00:27:01;;;;;;;1.45;0.90;;;;;;;20.91;27.95;101581.59;4545168;28;20037;-67
2023/11/22 00:29:12;;;;;;;0.88;0.82;;;;;;;20.86;27.88;101572.34;4517038;28;20041;-67
2023/11/22 00:31:22;;;;;;;1.15;0.80;;;;;;;20.80;28.04;101571.69;4544431;28;20033;-67
2023/11/22 00:33:34;;;;;;;0.75;0.70;;;;;;;20.91;27.63;101581.59;4544732;28;20064;-67
2023/11/22 00:35:45;;;;;;;0.82;0.80;;;;;;;20.88;27.68;101581.44;4544887;28;20447;-67
2023/11/22 00:37:55;;;;;;;0.88;0.88;;;;;;;20.91;28.01;101581.59;4544081;28;20572;-67
2023/11/22 00:40:13;;;;;;;1.00;0.90;;;;;;;20.88;27.39;101567.94;4544474;28;20151;-67
2023/11/22 00:42:23;;;;;;;0.70;0.70;;;;;;;20.88;27.50;101590.91;4515805;28;20026;-67
2023/11/22 00:44:33;;;;;;;0.98;0.80;;;;;;;20.85;27.80;101585.88;4545614;28;20698;-67
2023/11/22 00:46:45;;;;;;;0.85;0.85;;;;;;;20.89;27.50;101592.56;4545650;28;20061;-67
2023/11/22 00:48:56;;;;;;;0.80;0.80;;;;;;;20.89;27.29;101589.72;4519265;28;21003;-67
2023/11/22 00:51:08;;;;;;;1.30;1.15;;;;;;;20.77;27.93;101589.63;4526831;28;20158;-67
2023/11/22 00:53:19;;;;;;;1.00;0.90;;;;;;;20.87;27.81;101608.47;4517146;28;20037;-67
2023/11/22 00:55:29;;;;;;;1.27;1.10;;;;;;;20.89;27.39;101614.69;4545786;28;20033;-67
2023/11/22 00:57:40;;;;;;;1.17;1.00;;;;;;;20.82;27.60;101609.47;4542678;28;20045;-67
2023/11/22 00:59:52;;;;;;;1.08;0.98;;;;;;;20.88;27.41;101613.88;4525956;28;20129;-67
2023/11/22 01:02:05;;;;;;;0.77;0.77;;;;;;;20.89;27.17;101620.41;4545383;28;21023;-67
2023/11/22 01:04:15;;;;;;;1.02;0.93;;;;;;;20.90;27.13;101636.47;4544140;28;20114;-67
2023/11/22 01:06:26;;;;;;;1.20;1.02;;;;;;;20.89;26.96;101638.50;4516366;28;20060;-67
2023/11/22 01:08:36;;;;;;;1.13;1.00;;;;;;;20.88;26.94;101636.81;4516908;28;20037;-67
2023/11/22 01:10:47;;;;;;;1.33;1.08;;;;;;;20.76;27.21;101626.06;4516458;28;20041;-67
2023/11/22 01:12:57;;;;;;;0.85;0.85;;;;;;;20.87;26.77;101638.00;4526286;28;20108;-67
2023/11/22 01:15:08;;;;;;;1.00;0.90;;;;;;;20.80;26.66;101620.47;4542931;28;20061;-67
2023/11/22 01:17:19;;;;;;;1.05;0.90;;;;;;;20.82;26.77;101632.44;4545052;28;20037;-67
2023/11/22 01:19:30;;;;;;;1.20;1.10;;;;;;;20.88;27.16;101641.72;4522526;28;20029;-67
2023/11/22 01:21:40;;;;;;;0.85;0.82;;;;;;;20.86;26.60;101639.19;4515543;28;20593;-67
2023/11/22 01:23:51;;;;;;;1.08;0.98;;;;;;;20.86;26.48;101635.47;4543747;28;20954;-67
2023/11/22 01:26:03;;;;;;;1.20;1.00;;;;;;;20.87;26.35;101635.13;4544222;28;20055;-67
2023/11/22 01:28:14;;;;;;;1.08;0.98;;;;;;;20.88;26.17;101635.97;4544141;28;20099;-67
2023/11/22 01:30:24;;;;;;;1.25;1.00;;;;;;;20.82;26.69;101620.97;4544568;28;20033;-67
2023/11/22 01:32:35;;;;;;;1.38;1.10;;;;;;;20.79;26.51;101618.78;4525894;28;20041;-67
2023/11/22 01:34:45;;;;;;;1.30;1.08;;;;;;;20.86;26.58;101630.56;4544208;28;20041;-67
2023/11/22 01:36:56;;;;;;;1.10;1.00;;;;;;;20.79;26.04;101615.91;4517095;28;20466;-67
2023/11/22 01:39:06;;;;;;;1.20;1.10;;;;;;;20.87;26.26;101629.38;4526077;28;23932;-67
2023/11/22 01:41:16;;;;;;;1.30;1.20;;;;;;;20.81;26.08;101627.91;4544956;28;20044;-67
2023/11/22 01:43:27;;;;;;;1.20;1.10;;;;;;;20.85;25.81;101631.78;4516349;28;20021;-67
2023/11/22 01:45:38;;;;;;;1.27;1.17;;;;;;;20.77;25.89;101624.03;4525623;28;20033;-67
2023/11/22 01:47:48;;;;;;;1.55;1.10;;;;;;;20.84;25.88;101638.69;4525312;28;20044;-67
2023/11/22 01:49:59;;;;;;;1.40;1.20;;;;;;;20.84;25.90;101638.69;4515126;28;20032;-67
2023/11/22 01:52:10;;;;;;;1.30;1.17;;;;;;;20.83;25.97;101628.41;4527940;28;20068;-67
2023/11/22 01:54:23;;;;;;;1.30;1.20;;;;;;;20.65;25.77;101595.22;4523768;28;20048;-67
2023/11/22 01:56:35;;;;;;;1.50;1.30;;;;;;;20.83;26.02;101622.66;4526191;28;20156;-67
2023/11/22 01:58:46;;;;;;;1.25;1.13;;;;;;;20.83;25.78;101622.66;4542384;28;20122;-67
2023/11/22 02:00:58;;;;;;;1.20;1.10;;;;;;;20.79;25.65;101627.38;4525308;28;20622;-67
2023/11/22 02:03:08;;;;;;;1.25;1.15;;;;;;;20.83;25.71;101639.88;4544195;28;20881;-67
2023/11/22 02:05:18;;;;;;;1.27;1.15;;;;;;;20.83;25.24;101636.16;4516980;28;20033;-67
2023/11/22 02:07:31;;;;;;;1.38;1.10;;;;;;;20.82;25.41;101632.44;4544154;28;20025;-67
2023/11/22 02:09:41;;;;;;;1.80;1.30;;;;;;;20.78;25.48;101632.31;4527406;28;20812;-67
2023/11/22 02:11:52;;;;;;;1.23;1.10;;;;;;;20.82;25.67;101643.91;4543904;28;20069;-67
2023/11/22 02:14:02;;;;;;;1.48;1.08;;;;;;;20.78;25.46;101640.06;4527004;28;20035;-67
2023/11/22 02:16:13;;;;;;;1.20;1.10;;;;;;;20.82;25.05;101652.53;4527103;28;20033;-67
2023/11/22 02:18:23;;;;;;;1.50;1.23;;;;;;;20.81;25.48;101650.84;4525778;28;20056;-67
2023/11/22 02:20:34;;;;;;;1.33;1.13;;;;;;;20.79;25.71;101656.94;4524528;28;20099;-67
2023/11/22 02:22:46;;;;;;;1.48;1.20;;;;;;;20.81;25.49;101647.97;4543716;28;20086;-67
2023/11/22 02:24:57;;;;;;;1.48;1.27;;;;;;;20.82;25.12;101658.25;4525556;28;20075;-67
2023/11/22 02:27:08;;;;;;;1.25;1.15;;;;;;;20.80;25.02;101652.88;4516060;28;20051;-67
2023/11/22 02:29:19;;;;;;;1.08;1.00;;;;;;;20.76;25.21;101662.50;4543531;28;20037;-67
2023/11/22 02:31:30;;;;;;;1.35;1.10;;;;;;;20.79;25.10;101673.28;4543114;28;20017;-67
2023/11/22 02:33:41;;;;;;;1.70;1.20;;;;;;;20.76;25.24;101663.34;4525316;28;20033;-67
2023/11/22 02:35:52;;;;;;;1.33;1.20;;;;;;;20.74;25.32;101668.59;4543399;28;20036;-67
2023/11/22 02:38:02;;;;;;;1.33;1.10;;;;;;;20.78;25.39;101683.09;4524903;28;20045;-67
2023/11/22 02:40:19;;;;;;;1.20;1.10;;;;;;;20.77;25.06;101682.25;4525148;28;21018;-67
2023/11/22 02:42:29;;;;;;;1.40;1.30;;;;;;;20.74;24.99;101673.47;4543437;28;20087;-67
2023/11/22 02:44:40;;;;;;;1.30;1.13;;;;;;;20.77;24.79;101687.16;4526335;28;20548;-67
2023/11/22 02:46:50;;;;;;;1.33;1.23;;;;;;;20.77;25.25;101687.16;4525565;28;20147;-66
2023/11/22 02:49:01;;;;;;;1.20;1.00;;;;;;;20.76;25.01;101697.78;4543436;28;20041;-66
2023/11/22 02:51:11;;;;;;;1.13;1.02;;;;;;;20.70;24.90;101687.69;4542737;28;20025;-66
2023/11/22 02:53:22;;;;;;;1.20;1.10;;;;;;;20.74;25.20;101687.81;4524802;28;20065;-66
2023/11/22 02:55:32;;;;;;;1.30;1.20;;;;;;;20.76;25.09;101699.81;4543484;28;20559;-66
2023/11/22 02:57:43;;;;;;;1.35;1.08;;;;;;;20.77;25.45;101698.66;4517111;28;20044;-66
2023/11/22 02:59:53;;;;;;;1.30;1.17;;;;;;;20.77;25.42;101698.66;4524574;28;20033;-66
2023/11/22 03:02:03;;;;;;;1.20;1.10;;;;;;;20.77;25.04;101695.78;4514897;28;20053;-66
2023/11/22 03:04:14;;;;;;;1.30;1.20;;;;;;;20.75;25.26;101701.84;4516500;28;20036;-66
2023/11/22 03:06:24;;;;;;;1.17;1.08;;;;;;;20.72;25.22;101707.44;4524735;28;20394;-66
2023/11/22 03:08:34;;;;;;;1.48;1.15;;;;;;;20.72;25.07;101701.69;4514091;28;22491;-66
2023/11/22 03:10:46;;;;;;;1.73;1.33;;;;;;;20.76;25.22;101709.25;4541222;28;20496;-67
2023/11/22 03:12:56;;;;;;;1.20;1.10;;;;;;;20.73;25.07;101700.50;4510420;28;20110;-66
2023/11/22 03:15:07;;;;;;;1.10;1.00;;;;;;;20.75;25.29;101709.59;4525626;28;20092;-66
2023/11/22 03:17:17;;;;;;;1.13;1.02;;;;;;;20.68;24.92;101709.28;4542712;28;20053;-66
2023/11/22 03:19:28;;;;;;;1.40;1.30;;;;;;;20.75;24.79;101730.53;4517512;28;20061;-66
2023/11/22 03:21:43;;;;;;;1.30;1.20;;;;;;;20.70;24.80;101729.88;4514761;28;20136;-66
2023/11/22 03:23:54;;;;;;;1.42;1.13;;;;;;;20.76;24.96;101737.09;4543284;28;20084;-66
2023/11/22 03:26:06;;;;;;;1.45;1.33;;;;;;;20.70;24.94;101721.25;4508626;28;20034;-66
2023/11/22 03:28:17;;;;;;;1.60;1.50;;;;;;;20.76;24.96;101731.38;4524721;28;20025;-66
2023/11/22 03:30:27;;;;;;;1.45;1.20;;;;;;;20.69;24.85;101714.66;4524196;28;20885;-66
2023/11/22 03:32:39;;;;;;;1.20;1.10;;;;;;;20.75;25.01;101730.53;4507701;28;20030;-66
2023/11/22 03:34:49;;;;;;;1.50;1.20;;;;;;;20.75;24.82;101724.81;4525558;28;20125;-66
2023/11/22 03:37:00;;;;;;;1.45;1.35;;;;;;;20.75;24.66;101716.19;4543519;28;20136;-66
2023/11/22 03:39:10;;;;;;;1.30;1.20;;;;;;;20.75;25.12;101718.22;4525406;28;20017;-66
2023/11/22 03:41:20;;;;;;;1.38;1.20;;;;;;;20.73;24.67;101714.84;4542399;28;20045;-66
2023/11/22 03:43:31;;;;;;;1.63;1.20;;;;;;;20.71;25.13;101711.47;4543005;28;20489;-66
2023/11/22 03:45:41;;;;;;;1.45;1.20;;;;;;;20.71;24.75;101711.47;4544043;28;20029;-66
2023/11/22 03:47:52;;;;;;;1.40;1.20;;;;;;;20.75;24.69;101718.22;4528498;28;20525;-66
2023/11/22 03:50:05;;;;;;;1.27;1.15;;;;;;;20.72;24.90;101725.47;4545778;28;20060;-66
2023/11/22 03:52:16;;;;;;;1.38;1.20;;;;;;;20.71;24.99;101731.53;4545610;28;20044;-66
2023/11/22 03:54:26;;;;;;;1.52;1.40;;;;;;;20.67;24.96;101730.56;4545682;28;20455;-66
2023/11/22 03:56:37;;;;;;;1.23;1.13;;;;;;;20.75;25.04;101755.50;4545557;28;20041;-66
2023/11/22 03:58:48;;;;;;;1.25;1.00;;;;;;;20.72;24.98;101756.19;4544367;28;22532;-66
2023/11/22 04:01:02;;;;;;;1.30;1.08;;;;;;;20.72;24.79;101765.63;4544782;28;20849;-66
2023/11/22 04:03:12;;;;;;;1.50;1.25;;;;;;;20.68;24.67;101763.78;4544771;28;20584;-66
2023/11/22 04:05:23;;;;;;;1.30;1.20;;;;;;;20.70;24.55;101761.44;4545345;28;20024;-66
2023/11/22 04:07:33;;;;;;;1.40;1.30;;;;;;;20.70;24.77;101764.28;4545241;28;20029;-66
2023/11/22 04:09:44;;;;;;;1.50;1.40;;;;;;;20.73;24.59;101770.22;4544645;28;20044;-66
2023/11/22 04:11:54;;;;;;;1.10;1.00;;;;;;;20.74;24.39;101779.63;4545487;28;20029;-66
2023/11/22 04:14:06;;;;;;;1.45;1.10;;;;;;;20.69;24.76;101769.19;4545044;28;20477;-66
2023/11/22 04:16:17;;;;;;;1.20;1.10;;;;;;;20.68;24.42;101763.78;4542587;28;20045;-66
2023/11/22 04:18:27;;;;;;;1.48;1.38;;;;;;;20.73;25.00;101773.06;4554709;22;20269;-62
2023/11/22 04:20:38;;;;;;;1.50;1.27;;;;;;;20.69;24.64;101774.91;4524654;28;20083;-63
2023/11/22 04:22:48;;;;;;;1.55;1.20;;;;;;;20.68;25.03;101778.97;4526799;28;20463;-63
2023/11/22 04:24:59;;;;;;;1.35;1.20;;;;;;;20.65;24.61;101776.78;4526296;28;20037;-63
2023/11/22 04:27:09;;;;;;;1.20;1.10;;;;;;;20.71;24.52;101791.78;4526718;28;20038;-62
2023/11/22 04:29:20;;;;;;;1.60;1.20;;;;;;;20.69;24.86;101791.31;4525712;28;20026;-63
2023/11/22 04:31:30;;;;;;;1.25;1.10;;;;;;;20.71;24.75;101797.53;4525476;28;20103;-62
2023/11/22 04:33:41;;;;;;;1.67;1.30;;;;;;;20.68;24.61;101787.59;4526646;28;20088;-62
2023/11/22 04:35:51;;;;;;;1.13;1.00;;;;;;;20.69;24.63;101792.13;4526001;28;20052;-62
2023/11/22 04:38:02;;;;;;;1.38;1.08;;;;;;;20.50;24.30;101756.41;4525880;28;20056;-62
2023/11/22 04:40:14;;;;;;;1.20;1.10;;;;;;;20.68;24.24;101801.94;4525616;28;20060;-62
2023/11/22 04:42:24;;;;;;;1.50;1.27;;;;;;;20.67;24.17;101799.41;4525932;28;20838;-62
2023/11/22 04:44:35;;;;;;;1.40;1.20;;;;;;;20.69;24.20;101806.47;4525951;28;20913;-62
2023/11/22 04:46:45;;;;;;;1.65;1.30;;;;;;;20.68;24.36;101798.22;4526537;28;20064;-63
2023/11/22 04:48:57;;;;;;;1.33;1.20;;;;;;;20.66;24.48;101800.59;4524397;28;20041;-62
2023/11/22 04:51:07;;;;;;;1.30;1.20;;;;;;;20.66;24.31;101801.41;4526082;28;20120;-62
2023/11/22 04:53:19;;;;;;;1.20;1.10;;;;;;;20.69;24.26;101799.91;4525511;28;20034;-63
2023/11/22 04:55:29;;;;;;;1.52;1.15;;;;;;;20.66;24.06;101801.41;4526169;28;20069;-62
2023/11/22 04:57:40;;;;;;;1.25;1.15;;;;;;;20.67;23.95;101799.41;4525722;28;20052;-62
2023/11/22 04:59:50;;;;;;;1.52;1.13;;;;;;;20.59;24.09;101780.19;4525775;28;20022;-62
2023/11/22 05:02:00;;;;;;;1.10;1.00;;;;;;;20.68;24.03;101807.66;4526008;28;20030;-62
2023/11/22 05:04:11;;;;;;;1.50;1.20;;;;;;;20.66;24.24;101804.28;4525864;28;20029;-62
2023/11/22 05:06:21;;;;;;;1.30;1.20;;;;;;;20.65;23.69;101804.63;4526442;28;20493;-62
2023/11/22 05:08:32;;;;;;;1.35;1.10;;;;;;;20.66;23.73;101806.34;4525011;28;20029;-62
2023/11/22 05:10:42;;;;;;;1.38;1.27;;;;;;;20.65;24.06;101804.63;4524262;28;20038;-62
2023/11/22 05:12:53;;;;;;;1.58;1.30;;;;;;;20.61;23.64;101792.16;4526062;28;20041;-64
2023/11/22 05:15:04;;;;;;;1.38;1.20;;;;;;;20.63;23.89;101796.38;4526009;28;20104;-62
2023/11/22 05:17:14;;;;;;;1.50;1.20;;;;;;;20.60;23.42;101784.72;4525173;28;20337;-62
2023/11/22 05:19:24;;;;;;;1.60;1.15;;;;;;;20.65;23.50;101805.47;4524339;28;20080;-62
2023/11/22 05:21:35;;;;;;;1.30;1.20;;;;;;;20.65;23.52;101807.50;4524456;28;20139;-62
2023/11/22 05:23:45;;;;;;;1.30;1.20;;;;;;;20.65;23.56;101810.38;4525183;28;20120;-62
2023/11/22 05:25:56;;;;;;;0.88;0.85;;;;;;;20.65;23.36;101816.09;4524859;28;20467;-62
2023/11/22 05:28:06;;;;;;;1.33;1.10;;;;;;;20.65;23.63;101822.69;4525717;28;20072;-62
2023/11/22 05:30:17;;;;;;;1.38;1.10;;;;;;;20.64;23.66;101831.63;4526009;28;20036;-62
2023/11/22 05:32:28;;;;;;;1.30;1.15;;;;;;;20.65;23.72;101839.91;4525866;28;20052;-63
2023/11/22 05:34:40;;;;;;;1.23;1.13;;;;;;;20.59;23.58;101840.41;4525571;28;20032;-63
2023/11/22 05:36:51;;;;;;;1.20;1.10;;;;;;;20.64;23.79;101846.81;4525761;28;20521;-62
2023/11/22 05:39:03;;;;;;;1.30;1.20;;;;;;;20.66;23.34;101840.75;4525542;28;20053;-62
2023/11/22 05:41:14;;;;;;;1.33;1.23;;;;;;;20.64;23.43;101831.63;4525243;28;20037;-62
2023/11/22 05:43:25;;;;;;;1.30;1.20;;;;;;;20.62;23.27;101842.59;4525638;28;20038;-62
2023/11/22 05:45:35;;;;;;;1.60;1.17;;;;;;;20.61;23.43;101846.66;4525032;28;20144;-62
2023/11/22 05:47:46;;;;;;;1.60;1.25;;;;;;;20.65;23.45;101860.00;4525243;28;20602;-63
2023/11/22 05:49:56;;;;;;;1.40;1.30;;;;;;;20.61;23.66;101850.34;4524849;28;20505;-63
2023/11/22 05:52:07;;;;;;;1.63;1.40;;;;;;;20.59;23.67;101840.41;4525445;28;20026;-62
2023/11/22 05:54:17;;;;;;;1.60;1.30;;;;;;;20.65;23.73;101854.25;4525464;28;20048;-62
2023/11/22 05:56:28;;;;;;;1.23;1.13;;;;;;;20.65;23.33;101850.53;4524750;28;20040;-62
2023/11/22 05:58:39;;;;;;;1.20;1.10;;;;;;;20.67;23.30;101848.19;4525215;28;20044;-62
2023/11/22 06:00:49;;;;;;;1.35;1.20;;;;;;;20.64;23.41;101843.13;4525285;28;20040;-63
2023/11/22 06:03:00;;;;;;;1.95;1.30;;;;;;;20.51;23.41;101827.75;4525281;28;20037;-63
2023/11/22 06:05:11;;;;;;;1.40;1.30;;;;;;;20.61;23.19;101850.34;4525266;28;20061;-62
2023/11/22 06:07:21;;;;;;;1.48;1.33;;;;;;;20.62;23.11;101851.22;4525053;28;20494;-62
2023/11/22 06:09:31;;;;;;;1.40;1.30;;;;;;;20.62;23.53;101848.34;4524649;28;20034;-62
2023/11/22 06:11:42;;;;;;;1.70;1.60;;;;;;;20.62;23.35;101857.81;4524861;28;20068;-62
2023/11/22 06:13:52;;;;;;;1.40;1.30;;;;;;;20.61;23.42;101850.34;4525122;28;20452;-62
2023/11/22 06:16:03;;;;;;;1.77;1.67;;;;;;;20.62;23.33;101854.06;4524863;28;20069;-62
2023/11/22 06:18:15;;;;;;;2.92;2.47;;;;;;;20.57;23.37;101828.44;4524512;28;20156;-62
2023/11/22 06:20:27;;;;;;;3.42;2.70;;;;;;;20.60;23.15;101854.41;4525085;28;20115;-62
2023/11/22 06:22:40;;;;;;;2.25;2.05;;;;;;;20.58;23.12;101858.81;4525055;28;20033;-62
2023/11/22 06:24:51;;;;;;;2.53;2.17;;;;;;;20.58;23.35;101861.69;4524679;28;20119;-62
2023/11/22 06:27:03;;;;;;;2.20;1.92;;;;;;;20.61;23.04;101863.88;4525132;28;20118;-62
2023/11/22 06:29:14;;;;;;;2.17;1.88;;;;;;;20.60;22.77;101860.16;4524740;28;20037;-63
2023/11/22 06:31:24;;;;;;;2.00;1.80;;;;;;;20.61;23.19;101872.47;4524069;28;20163;-62
2023/11/22 06:33:36;;;;;;;1.80;1.60;;;;;;;20.60;22.67;101867.91;4523309;28;20501;-62
2023/11/22 06:35:47;;;;;;;1.67;1.55;;;;;;;20.60;22.74;101871.63;4524883;28;20029;-62
2023/11/22 06:37:57;;;;;;;2.40;1.30;;;;;;;20.58;22.95;101865.38;4539279;28;20120;-63
2023/11/22 06:40:08;;;;;;;1.40;1.30;;;;;;;20.57;22.62;101865.72;4524074;28;20029;-62
2023/11/22 06:42:22;;;;;;;1.42;1.33;;;;;;;20.56;22.52;101859.16;4525347;28;20030;-62
2023/11/22 06:44:32;;;;;;;1.58;1.30;;;;;;;20.56;22.79;101858.31;4524829;28;20745;-62
2023/11/22 06:46:42;;;;;;;1.60;1.50;;;;;;;20.58;22.93;101862.50;4524755;28;20119;-63
2023/11/22 06:48:53;;;;;;;1.27;1.17;;;;;;;20.58;23.05;101856.78;4524693;28;20034;-62
2023/11/22 06:51:03;;;;;;;2.22;1.40;;;;;;;20.53;23.06;101844.63;4522733;28;20040;-62
2023/11/22 06:53:14;;;;;;;1.40;1.30;;;;;;;20.58;22.87;101855.94;4524335;28;20033;-62
2023/11/22 06:55:26;;;;;;;1.30;1.20;;;;;;;20.60;22.76;101859.31;4524256;28;20049;-62
2023/11/22 06:57:37;;;;;;;1.15;1.05;;;;;;;20.59;23.00;101860.50;4524575;28;20576;-62
2023/11/22 06:59:48;;;;;;;1.83;1.40;;;;;;;20.58;22.95;101848.16;4524241;28;20037;-62
2023/11/22 07:01:58;;;;;;;1.50;1.20;;;;;;;20.54;22.86;101837.72;4524177;28;20021;-62
2023/11/22 07:04:09;;;;;;;1.50;1.38;;;;;;;20.58;22.78;101847.34;4523493;28;20493;-63
2023/11/22 07:06:19;;;;;;;1.80;1.60;;;;;;;20.58;22.77;101838.75;4522878;28;20135;-63
2023/11/22 07:08:30;;;;;;;1.70;1.40;;;;;;;20.56;22.54;101833.34;4524393;28;20041;-62
2023/11/22 07:10:40;;;;;;;1.70;1.50;;;;;;;20.60;22.63;101839.22;4524351;28;20044;-62
2023/11/22 07:12:51;;;;;;;1.50;1.40;;;;;;;20.59;22.77;101838.41;4524092;28;20095;-64
2023/11/22 07:15:02;;;;;;;1.95;1.70;;;;;;;20.64;22.61;101838.19;4524412;28;20042;-62
2023/11/22 07:17:13;;;;;;;1.90;1.50;;;;;;;20.54;22.86;101820.50;4524273;28;20052;-62
2023/11/22 07:19:23;;;;;;;1.88;1.70;;;;;;;20.60;22.62;101836.34;4524610;28;20048;-63
2023/11/22 07:21:37;;;;;;;1.80;1.60;;;;;;;20.60;22.89;101847.81;4525574;28;20377;-63
2023/11/22 07:23:48;;;;;;;1.90;1.70;;;;;;;20.60;22.89;101848.69;4527205;28;20811;-63
2023/11/22 07:25:58;;;;;;;3.45;2.10;;;;;;;20.60;22.57;101859.31;4527440;28;20032;-62
2023/11/22 07:28:08;;;;;;;3.47;2.10;;;;;;;20.62;22.61;101871.28;4527294;28;20387;-62
2023/11/22 07:30:19;;;;;;;2.42;1.65;;;;;;;20.62;22.77;101865.56;4526958;28;20516;-62
2023/11/22 07:32:30;;;;;;;2.22;1.73;;;;;;;20.59;22.83;101869.09;4527453;28;20022;-62
2023/11/22 07:34:41;;;;;;;1.75;1.60;;;;;;;20.64;22.77;101877.53;4527048;28;20037;-63
2023/11/22 07:36:51;;;;;;;3.03;1.70;;;;;;;20.64;23.07;101886.97;4527111;28;20030;-62
2023/11/22 07:39:02;;;;;;;1.67;1.52;;;;;;;20.63;22.70;101881.56;4527195;28;20038;-64
2023/11/22 07:41:13;;;;;;;2.00;1.80;;;;;;;20.64;22.68;101889.03;4527394;28;20199;-62
2023/11/22 07:43:24;;;;;;;2.60;1.95;;;;;;;20.62;22.83;101879.91;4527058;28;20175;-62
2023/11/22 07:45:34;;;;;;;2.30;2.05;;;;;;;20.59;22.77;101877.72;4527177;28;20885;-62
2023/11/22 07:47:46;;;;;;;2.40;2.00;;;;;;;20.63;23.24;101884.44;4527038;28;20037;-62
2023/11/22 07:49:57;;;;;;;2.58;1.80;;;;;;;20.60;23.20;101883.09;4526362;28;20021;-62
2023/11/22 07:52:13;;;;;;;2.08;1.83;;;;;;;20.59;23.10;101881.44;4527091;28;20398;-62
2023/11/22 07:54:23;;;;;;;1.92;1.60;;;;;;;20.62;23.35;101886.50;4527012;28;20057;-62
2023/11/22 07:56:34;;;;;;;1.65;1.55;;;;;;;20.60;23.40;101882.25;4509654;28;20527;-63
2023/11/22 07:58:45;;;;;;;1.60;1.50;;;;;;;20.63;23.58;101890.19;4526172;28;20057;-63
2023/11/22 08:00:55;;;;;;;1.83;1.55;;;;;;;20.58;23.33;101901.84;4526501;28;20040;-62
2023/11/22 08:03:06;;;;;;;1.80;1.50;;;;;;;20.59;23.29;101904.38;4526466;28;20516;-63
2023/11/22 08:05:17;;;;;;;1.88;1.60;;;;;;;20.65;23.72;101913.66;4526685;28;20512;-62
2023/11/22 08:07:28;;;;;;;2.58;1.70;;;;;;;20.62;23.88;101920.06;4526967;28;20096;-65
2023/11/22 08:09:38;;;;;;;2.05;1.60;;;;;;;20.61;24.03;101906.91;4526640;28;20029;-62
2023/11/22 08:11:49;;;;;;;2.15;1.80;;;;;;;20.59;24.11;101912.13;4526856;28;20048;-62
2023/11/22 08:14:00;;;;;;;3.08;2.40;;;;;;;20.53;23.98;101887.66;4526731;28;20099;-63
2023/11/22 08:16:14;;;;;;;3.35;2.55;;;;;;;20.60;24.05;101902.31;4526617;28;20064;-62
2023/11/22 08:18:24;;;;;;;3.53;2.60;;;;;;;20.63;23.94;101899.63;4526383;28;20065;-62
2023/11/22 08:20:34;;;;;;;3.65;2.50;;;;;;;20.61;24.34;101901.16;4524880;28;20165;-62
2023/11/22 08:22:49;;;;;;;2.83;2.50;;;;;;;20.61;24.28;101898.31;4541535;28;20120;-62
2023/11/22 08:24:59;;;;;;;2.40;2.20;;;;;;;20.64;24.37;101895.56;4526536;28;20026;-63
2023/11/22 08:27:10;;;;;;;3.35;2.40;;;;;;;20.58;24.13;101896.94;4526429;28;20082;-62
2023/11/22 08:29:20;;;;;;;2.78;2.35;;;;;;;20.66;24.49;101892.41;4526560;28;20113;-63
2023/11/22 08:31:30;;;;;;;2.78;2.35;;;;;;;20.65;24.33;101896.44;4524211;28;20038;-63
2023/11/22 08:33:41;;;;;;;2.63;2.05;;;;;;;20.66;24.23;101910.44;4526485;28;20540;-63
2023/11/22 08:35:58;;;;;;;2.80;2.30;;;;;;;20.47;24.46;101868.94;4526182;28;20045;-62
2023/11/22 08:38:09;;;;;;;;;;;;;;;20.70;24.51;101910.63;4526902;28;20081;-62
2023/11/22 08:40:20;;;;;;;3.10;2.50;;;;;;;20.68;24.61;101901.50;4526421;28;19971;-63
2023/11/22 08:42:30;;;;;;;2.65;2.03;;;;;;;20.69;24.63;101908.94;4526159;28;20113;-63
2023/11/22 08:44:41;;;;;;;2.33;1.90;;;;;;;20.69;24.58;101915.50;4525804;28;20563;-62
2023/11/22 08:46:52;;;;;;;2.13;1.92;;;;;;;20.68;24.59;101922.44;4525643;28;20073;-63
2023/11/22 08:49:03;;;;;;;2.00;1.70;;;;;;;20.71;24.59;101932.38;4525789;28;20112;-62
2023/11/22 08:51:15;;;;;;;1.90;1.60;;;;;;;20.66;24.51;101938.31;4525465;28;20041;-63
2023/11/22 08:53:25;;;;;;;1.73;1.40;;;;;;;20.71;24.51;101943.84;4526482;28;20049;-63
2023/11/22 08:55:36;;;;;;;1.83;1.63;;;;;;;20.72;24.53;101942.69;4525707;28;20040;-62
2023/11/22 08:57:47;;;;;;;1.73;1.55;;;;;;;20.70;25.02;101943.03;4526070;28;20046;-62
2023/11/22 09:00:01;;;;;;;1.83;1.50;;;;;;;20.71;24.99;101938.13;4525936;28;20017;-62
2023/11/22 09:02:14;;;;;;;1.85;1.40;;;;;;;20.72;24.70;101954.16;4525858;28;20040;-63
2023/11/22 09:04:26;;;;;;;1.95;1.65;;;;;;;20.71;24.74;101958.19;4525116;28;20040;-62
2023/11/22 09:06:36;;;;;;;1.63;1.52;;;;;;;20.72;24.84;101968.50;4525886;28;20880;-63
2023/11/22 09:08:48;;;;;;;1.45;1.35;;;;;;;20.72;25.14;101962.78;4525723;28;20116;-63
2023/11/22 09:10:58;;;;;;;1.80;1.50;;;;;;;20.73;25.01;101978.81;4525709;28;20864;-62
2023/11/22 09:13:09;;;;;;;1.58;1.45;;;;;;;20.73;25.05;101990.28;4526035;28;20025;-63
2023/11/22 09:15:26;;;;;;;2.05;1.70;;;;;;;20.74;24.85;101983.34;4525264;28;20041;-63
2023/11/22 09:17:43;;;;;;;1.73;1.48;;;;;;;20.73;24.96;101978.81;4525628;28;20651;-62
2023/11/22 09:19:56;;;;;;;1.85;1.70;;;;;;;20.74;25.15;101978.47;4524926;28;20041;-62
2023/11/22 09:22:07;;;;;;;2.40;1.75;;;;;;;20.74;25.24;101974.75;4525917;28;20223;-63
2023/11/22 09:24:17;;;;;;;2.00;1.60;;;;;;;20.74;25.14;101966.13;4525909;28;20018;-63
2023/11/22 09:26:29;;;;;;;1.95;1.52;;;;;;;20.74;25.25;101960.41;4525415;28;20033;-63
2023/11/22 09:28:41;;;;;;;1.98;1.60;;;;;;;20.74;25.45;101943.19;4525109;28;20131;-63
2023/11/22 09:30:52;;;;;;;2.05;1.80;;;;;;;20.75;25.22;101944.88;4525746;28;20084;-62
2023/11/22 09:33:04;;;;;;;2.05;1.85;;;;;;;20.73;25.06;101944.38;4525485;28;20593;-63
2023/11/22 09:35:15;;;;;;;2.08;1.80;;;;;;;20.74;25.08;101951.78;4525399;28;20029;-63
2023/11/22 09:37:25;;;;;;;1.70;1.52;;;;;;;20.73;24.90;101952.97;4525689;28;20041;-63
2023/11/22 09:39:36;;;;;;;1.73;1.63;;;;;;;20.72;25.18;101954.16;4525129;28;20041;-62
2023/11/22 09:41:46;;;;;;;2.15;1.85;;;;;;;20.70;25.14;101950.78;4525585;28;20041;-62
2023/11/22 09:43:58;;;;;;;2.13;1.70;;;;;;;20.71;24.89;101955.34;4524340;28;20032;-63
2023/11/22 09:46:11;;;;;;;1.63;1.52;;;;;;;20.77;24.80;101960.56;4525100;28;20112;-63
2023/11/22 09:48:23;;;;;;;2.10;1.70;;;;;;;20.77;24.81;101962.63;4525232;28;20033;-63
2023/11/22 09:50:42;;;;;;;2.13;1.70;;;;;;;20.77;25.02;101951.16;4525175;28;21274;-63
2023/11/22 09:53:00;;;;;;;1.70;1.60;;;;;;;20.77;25.20;101949.09;4525401;28;20096;-62
2023/11/22 09:55:11;;;;;;;1.95;1.60;;;;;;;20.73;25.09;101936.63;4524222;28;20060;-63
2023/11/22 09:57:23;;;;;;;2.05;1.65;;;;;;;20.69;24.93;101918.38;4525035;28;20038;-63
2023/11/22 09:59:36;;;;;;;1.95;1.60;;;;;;;20.76;24.76;101941.69;4524702;28;21280;-63
2023/11/22 10:01:46;;;;;;;2.05;1.70;;;;;;;20.77;24.66;101951.16;4524939;28;20025;-63
2023/11/22 10:03:58;;;;;;;2.10;1.60;;;;;;;20.76;24.81;101950.28;4523872;28;21135;-63
2023/11/22 10:06:08;;;;;;;2.15;1.80;;;;;;;20.80;24.55;101970.56;4525241;28;20133;-62
2023/11/22 10:08:22;;;;;;;1.80;1.58;;;;;;;20.79;24.83;101965.97;4524935;28;20124;-63